sensor_id;sensor_type;location;lat;lon;timestamp;temperature;humidity
70051;SHT30;57391;51.306;22.680;2023-04-03T00:01:16;2.91;82.93
70051;SHT30;57391;51.306;22.680;2023-04-03T00:03:43;2.89;82.91
70051;SHT30;57391;51.306;22.680;2023-04-03T00:06:11;2.88;82.91
70051;SHT30;57391;51.306;22.680;2023-04-03T00:08:39;2.86;82.91
70051;SHT30;57391;51.306;22.680;2023-04-03T00:11:07;2.83;82.91
70051;SHT30;57391;51.306;22.680;2023-04-03T00:13:36;2.82;82.91
70051;SHT30;57391;51.306;22.680;2023-04-03T00:16:04;2.80;82.98
70051;SHT30;57391;51.306;22.680;2023-04-03T00:18:32;2.77;82.96
70051;SHT30;57391;51.306;22.680;2023-04-03T00:20:59;2.77;83.03
70051;SHT30;57391;51.306;22.680;2023-04-03T00:23:27;2.77;83.06
70051;SHT30;57391;51.306;22.680;2023-04-03T00:25:55;2.76;83.14
70051;SHT30;57391;51.306;22.680;2023-04-03T00:28:22;2.73;83.13
70051;SHT30;57391;51.306;22.680;2023-04-03T00:30:50;2.71;83.20
70051;SHT30;57391;51.306;22.680;2023-04-03T00:33:17;2.70;83.20
70051;SHT30;57391;51.306;22.680;2023-04-03T00:35:48;2.69;83.24
70051;SHT30;57391;51.306;22.680;2023-04-03T00:38:16;2.67;83.28
70051;SHT30;57391;51.306;22.680;2023-04-03T00:40:45;2.66;83.35
70051;SHT30;57391;51.306;22.680;2023-04-03T00:43:21;2.65;83.42
70051;SHT30;57391;51.306;22.680;2023-04-03T00:45:52;2.65;83.47
70051;SHT30;57391;51.306;22.680;2023-04-03T00:51:00;2.62;83.54
70051;SHT30;57391;51.306;22.680;2023-04-03T00:53:37;2.61;83.54
70051;SHT30;57391;51.306;22.680;2023-04-03T00:56:13;2.61;83.57
70051;SHT30;57391;51.306;22.680;2023-04-03T00:58:44;2.62;83.61
70051;SHT30;57391;51.306;22.680;2023-04-03T01:01:38;2.61;83.67
70051;SHT30;57391;51.306;22.680;2023-04-03T01:04:05;2.62;83.72
70051;SHT30;57391;51.306;22.680;2023-04-03T01:06:53;2.62;83.70
70051;SHT30;57391;51.306;22.680;2023-04-03T01:09:24;2.62;83.70
70051;SHT30;57391;51.306;22.680;2023-04-03T01:11:53;2.61;83.71
70051;SHT30;57391;51.306;22.680;2023-04-03T01:14:20;2.60;83.76
70051;SHT30;57391;51.306;22.680;2023-04-03T01:16:54;2.61;83.81
70051;SHT30;57391;51.306;22.680;2023-04-03T01:19:21;2.62;83.84
70051;SHT30;57391;51.306;22.680;2023-04-03T01:24:40;2.62;83.80
70051;SHT30;57391;51.306;22.680;2023-04-03T01:27:10;2.62;83.80
70051;SHT30;57391;51.306;22.680;2023-04-03T01:29:38;2.64;83.78
70051;SHT30;57391;51.306;22.680;2023-04-03T01:32:06;2.65;83.76
70051;SHT30;57391;51.306;22.680;2023-04-03T01:34:34;2.64;83.62
70051;SHT30;57391;51.306;22.680;2023-04-03T01:37:01;2.64;83.60
70051;SHT30;57391;51.306;22.680;2023-04-03T01:39:28;2.63;83.62
70051;SHT30;57391;51.306;22.680;2023-04-03T01:41:56;2.60;83.61
70051;SHT30;57391;51.306;22.680;2023-04-03T01:44:42;2.58;83.70
70051;SHT30;57391;51.306;22.680;2023-04-03T01:47:09;2.57;83.73
70051;SHT30;57391;51.306;22.680;2023-04-03T01:49:37;2.56;83.72
70051;SHT30;57391;51.306;22.680;2023-04-03T01:52:04;2.57;83.77
70051;SHT30;57391;51.306;22.680;2023-04-03T01:54:31;2.56;83.73
70051;SHT30;57391;51.306;22.680;2023-04-03T01:56:58;2.56;83.80
70051;SHT30;57391;51.306;22.680;2023-04-03T01:59:25;2.56;83.94
70051;SHT30;57391;51.306;22.680;2023-04-03T02:01:52;2.56;83.91
70051;SHT30;57391;51.306;22.680;2023-04-03T02:04:19;2.58;83.97
70051;SHT30;57391;51.306;22.680;2023-04-03T02:06:47;2.60;84.01
70051;SHT30;57391;51.306;22.680;2023-04-03T02:09:14;2.60;83.94
70051;SHT30;57391;51.306;22.680;2023-04-03T02:11:41;2.61;83.87
70051;SHT30;57391;51.306;22.680;2023-04-03T02:14:09;2.59;83.69
70051;SHT30;57391;51.306;22.680;2023-04-03T02:16:36;2.55;83.56
70051;SHT30;57391;51.306;22.680;2023-04-03T02:19:04;2.53;83.54
70051;SHT30;57391;51.306;22.680;2023-04-03T02:21:31;2.50;83.51
70051;SHT30;57391;51.306;22.680;2023-04-03T02:23:58;2.47;83.59
70051;SHT30;57391;51.306;22.680;2023-04-03T02:26:26;2.44;83.44
70051;SHT30;57391;51.306;22.680;2023-04-03T02:28:53;2.40;83.40
70051;SHT30;57391;51.306;22.680;2023-04-03T02:31:20;2.38;83.30
70051;SHT30;57391;51.306;22.680;2023-04-03T02:33:47;2.36;83.38
70051;SHT30;57391;51.306;22.680;2023-04-03T02:36:14;2.32;83.32
70051;SHT30;57391;51.306;22.680;2023-04-03T02:38:44;2.29;83.34
70051;SHT30;57391;51.306;22.680;2023-04-03T02:41:12;2.28;83.42
70051;SHT30;57391;51.306;22.680;2023-04-03T02:43:39;2.26;83.49
70051;SHT30;57391;51.306;22.680;2023-04-03T02:46:07;2.24;83.47
70051;SHT30;57391;51.306;22.680;2023-04-03T02:48:34;2.23;83.39
70051;SHT30;57391;51.306;22.680;2023-04-03T02:51:02;2.20;83.41
70051;SHT30;57391;51.306;22.680;2023-04-03T02:53:30;2.17;83.50
70051;SHT30;57391;51.306;22.680;2023-04-03T02:55:58;2.13;83.51
70051;SHT30;57391;51.306;22.680;2023-04-03T02:58:25;2.11;83.61
70051;SHT30;57391;51.306;22.680;2023-04-03T03:00:53;2.09;83.69
70051;SHT30;57391;51.306;22.680;2023-04-03T03:03:21;2.07;83.71
70051;SHT30;57391;51.306;22.680;2023-04-03T03:05:47;2.04;83.72
70051;SHT30;57391;51.306;22.680;2023-04-03T03:08:15;2.01;83.77
70051;SHT30;57391;51.306;22.680;2023-04-03T03:10:42;2.00;83.66
70051;SHT30;57391;51.306;22.680;2023-04-03T03:13:11;1.98;83.58
70051;SHT30;57391;51.306;22.680;2023-04-03T03:15:38;1.94;83.60
70051;SHT30;57391;51.306;22.680;2023-04-03T03:18:05;1.93;83.67
70051;SHT30;57391;51.306;22.680;2023-04-03T03:20:32;1.90;83.69
70051;SHT30;57391;51.306;22.680;2023-04-03T03:22:58;1.88;83.61
70051;SHT30;57391;51.306;22.680;2023-04-03T03:25:26;1.86;83.50
70051;SHT30;57391;51.306;22.680;2023-04-03T03:27:52;1.85;83.48
70051;SHT30;57391;51.306;22.680;2023-04-03T03:30:19;1.84;83.55
70051;SHT30;57391;51.306;22.680;2023-04-03T03:32:47;1.84;83.55
70051;SHT30;57391;51.306;22.680;2023-04-03T03:35:15;1.83;83.50
70051;SHT30;57391;51.306;22.680;2023-04-03T03:37:42;1.82;83.49
70051;SHT30;57391;51.306;22.680;2023-04-03T03:40:10;1.82;83.50
70051;SHT30;57391;51.306;22.680;2023-04-03T03:42:39;1.81;83.50
70051;SHT30;57391;51.306;22.680;2023-04-03T03:45:06;1.81;83.60
70051;SHT30;57391;51.306;22.680;2023-04-03T03:47:35;1.81;83.68
70051;SHT30;57391;51.306;22.680;2023-04-03T03:50:03;1.82;83.71
70051;SHT30;57391;51.306;22.680;2023-04-03T03:52:30;1.84;83.81
70051;SHT30;57391;51.306;22.680;2023-04-03T03:54:58;1.85;83.77
70051;SHT30;57391;51.306;22.680;2023-04-03T03:57:26;1.83;83.52
70051;SHT30;57391;51.306;22.680;2023-04-03T03:59:55;1.81;83.50
70051;SHT30;57391;51.306;22.680;2023-04-03T04:02:23;1.81;83.43
70051;SHT30;57391;51.306;22.680;2023-04-03T04:04:52;1.80;83.19
70051;SHT30;57391;51.306;22.680;2023-04-03T04:07:20;1.77;82.96
70051;SHT30;57391;51.306;22.680;2023-04-03T04:09:47;1.73;82.82
70051;SHT30;57391;51.306;22.680;2023-04-03T04:12:14;1.70;82.79
70051;SHT30;57391;51.306;22.680;2023-04-03T04:14:42;1.68;82.77
70051;SHT30;57391;51.306;22.680;2023-04-03T04:17:13;1.66;82.59
70051;SHT30;57391;51.306;22.680;2023-04-03T04:19:42;1.62;82.49
70051;SHT30;57391;51.306;22.680;2023-04-03T04:22:09;1.59;82.51
70051;SHT30;57391;51.306;22.680;2023-04-03T04:24:37;1.59;82.57
70051;SHT30;57391;51.306;22.680;2023-04-03T04:27:03;1.59;82.41
70051;SHT30;57391;51.306;22.680;2023-04-03T04:29:31;1.58;82.43
70051;SHT30;57391;51.306;22.680;2023-04-03T04:32:02;1.56;82.15
70051;SHT30;57391;51.306;22.680;2023-04-03T04:34:30;1.54;82.11
70051;SHT30;57391;51.306;22.680;2023-04-03T04:36:58;1.54;82.27
70051;SHT30;57391;51.306;22.680;2023-04-03T04:39:26;1.55;82.26
70051;SHT30;57391;51.306;22.680;2023-04-03T04:41:55;1.56;82.03
70051;SHT30;57391;51.306;22.680;2023-04-03T04:44:22;1.57;81.98
70051;SHT30;57391;51.306;22.680;2023-04-03T04:46:49;1.58;81.70
70051;SHT30;57391;51.306;22.680;2023-04-03T04:49:17;1.58;81.58
70051;SHT30;57391;51.306;22.680;2023-04-03T04:51:44;1.58;81.42
70051;SHT30;57391;51.306;22.680;2023-04-03T04:54:12;1.58;81.38
70051;SHT30;57391;51.306;22.680;2023-04-03T04:56:39;1.56;81.12
70051;SHT30;57391;51.306;22.680;2023-04-03T04:59:07;1.57;81.00
70051;SHT30;57391;51.306;22.680;2023-04-03T05:01:34;1.59;80.76
70051;SHT30;57391;51.306;22.680;2023-04-03T05:04:08;1.59;79.95
70051;SHT30;57391;51.306;22.680;2023-04-03T05:06:39;1.57;79.49
70051;SHT30;57391;51.306;22.680;2023-04-03T05:09:10;1.57;79.29
70051;SHT30;57391;51.306;22.680;2023-04-03T05:11:38;1.58;79.45
70051;SHT30;57391;51.306;22.680;2023-04-03T05:14:06;1.58;79.64
70051;SHT30;57391;51.306;22.680;2023-04-03T05:16:34;1.61;79.82
70051;SHT30;57391;51.306;22.680;2023-04-03T05:19:04;1.63;79.82
70051;SHT30;57391;51.306;22.680;2023-04-03T05:21:32;1.64;79.89
70051;SHT30;57391;51.306;22.680;2023-04-03T05:24:00;1.66;79.49
70051;SHT30;57391;51.306;22.680;2023-04-03T05:26:30;1.65;79.02
70051;SHT30;57391;51.306;22.680;2023-04-03T05:28:58;1.63;78.58
70051;SHT30;57391;51.306;22.680;2023-04-03T05:31:25;1.59;77.44
70051;SHT30;57391;51.306;22.680;2023-04-03T05:33:56;1.56;77.65
70051;SHT30;57391;51.306;22.680;2023-04-03T05:36:23;1.56;77.66
70051;SHT30;57391;51.306;22.680;2023-04-03T05:38:54;1.57;77.62
70051;SHT30;57391;51.306;22.680;2023-04-03T05:41:23;1.57;77.42
70051;SHT30;57391;51.306;22.680;2023-04-03T05:43:50;1.57;77.20
70051;SHT30;57391;51.306;22.680;2023-04-03T05:46:19;1.58;77.31
70051;SHT30;57391;51.306;22.680;2023-04-03T05:48:50;1.58;77.34
70051;SHT30;57391;51.306;22.680;2023-04-03T05:51:22;1.60;77.14
70051;SHT30;57391;51.306;22.680;2023-04-03T05:53:59;1.60;76.84
70051;SHT30;57391;51.306;22.680;2023-04-03T05:56:45;1.61;76.58
70051;SHT30;57391;51.306;22.680;2023-04-03T05:59:13;1.61;76.53
70051;SHT30;57391;51.306;22.680;2023-04-03T06:01:40;1.59;76.28
70051;SHT30;57391;51.306;22.680;2023-04-03T06:04:08;1.59;75.81
70051;SHT30;57391;51.306;22.680;2023-04-03T06:07:10;1.59;75.84
70051;SHT30;57391;51.306;22.680;2023-04-03T06:09:29;1.63;76.04
70051;SHT30;57391;51.306;22.680;2023-04-03T06:11:57;1.65;75.61
70051;SHT30;57391;51.306;22.680;2023-04-03T06:14:25;1.65;75.12
70051;SHT30;57391;51.306;22.680;2023-04-03T06:16:53;1.64;75.28
70051;SHT30;57391;51.306;22.680;2023-04-03T06:19:21;1.66;75.19
70051;SHT30;57391;51.306;22.680;2023-04-03T06:21:51;1.68;74.72
70051;SHT30;57391;51.306;22.680;2023-04-03T06:24:18;1.69;74.90
70051;SHT30;57391;51.306;22.680;2023-04-03T06:26:48;1.70;75.26
70051;SHT30;57391;51.306;22.680;2023-04-03T06:29:18;1.71;75.33
70051;SHT30;57391;51.306;22.680;2023-04-03T06:31:46;1.71;74.31
70051;SHT30;57391;51.306;22.680;2023-04-03T06:34:14;1.69;73.89
70051;SHT30;57391;51.306;22.680;2023-04-03T06:36:41;1.67;73.93
70051;SHT30;57391;51.306;22.680;2023-04-03T06:39:17;1.68;74.44
70051;SHT30;57391;51.306;22.680;2023-04-03T06:41:48;1.69;74.24
70051;SHT30;57391;51.306;22.680;2023-04-03T06:44:17;1.69;74.14
70051;SHT30;57391;51.306;22.680;2023-04-03T06:46:45;1.68;74.15
70051;SHT30;57391;51.306;22.680;2023-04-03T06:49:13;1.67;73.65
70051;SHT30;57391;51.306;22.680;2023-04-03T06:51:41;1.65;72.88
70051;SHT30;57391;51.306;22.680;2023-04-03T06:54:08;1.64;72.56
70051;SHT30;57391;51.306;22.680;2023-04-03T06:56:35;1.62;72.89
70051;SHT30;57391;51.306;22.680;2023-04-03T06:59:03;1.62;73.37
70051;SHT30;57391;51.306;22.680;2023-04-03T07:01:30;1.63;73.22
70051;SHT30;57391;51.306;22.680;2023-04-03T07:03:57;1.66;73.29
70051;SHT30;57391;51.306;22.680;2023-04-03T07:06:25;1.69;73.41
70051;SHT30;57391;51.306;22.680;2023-04-03T07:08:55;1.75;73.43
70051;SHT30;57391;51.306;22.680;2023-04-03T07:11:23;1.78;73.12
70051;SHT30;57391;51.306;22.680;2023-04-03T07:13:51;1.81;72.73
70051;SHT30;57391;51.306;22.680;2023-04-03T07:16:20;1.84;71.67
70051;SHT30;57391;51.306;22.680;2023-04-03T07:18:47;1.86;71.91
70051;SHT30;57391;51.306;22.680;2023-04-03T07:21:14;1.89;71.78
70051;SHT30;57391;51.306;22.680;2023-04-03T07:23:41;1.94;71.13
70051;SHT30;57391;51.306;22.680;2023-04-03T07:26:09;1.99;71.24
70051;SHT30;57391;51.306;22.680;2023-04-03T07:28:36;2.03;70.74
70051;SHT30;57391;51.306;22.680;2023-04-03T07:31:04;2.09;70.61
70051;SHT30;57391;51.306;22.680;2023-04-03T07:33:35;2.16;70.65
70051;SHT30;57391;51.306;22.680;2023-04-03T07:36:04;2.21;70.52
70051;SHT30;57391;51.306;22.680;2023-04-03T07:38:36;2.25;70.09
70051;SHT30;57391;51.306;22.680;2023-04-03T07:41:04;2.29;69.36
70051;SHT30;57391;51.306;22.680;2023-04-03T07:43:32;2.33;69.26
70051;SHT30;57391;51.306;22.680;2023-04-03T07:46:00;2.35;68.62
70051;SHT30;57391;51.306;22.680;2023-04-03T07:48:27;2.38;69.02
70051;SHT30;57391;51.306;22.680;2023-04-03T07:50:58;2.40;68.40
70051;SHT30;57391;51.306;22.680;2023-04-03T07:53:27;2.41;68.08
70051;SHT30;57391;51.306;22.680;2023-04-03T07:55:56;2.42;67.79
70051;SHT30;57391;51.306;22.680;2023-04-03T07:58:26;2.42;67.43
70051;SHT30;57391;51.306;22.680;2023-04-03T08:00:53;2.42;67.40
70051;SHT30;57391;51.306;22.680;2023-04-03T08:03:20;2.44;67.81
70051;SHT30;57391;51.306;22.680;2023-04-03T08:05:48;2.47;68.02
70051;SHT30;57391;51.306;22.680;2023-04-03T08:08:18;2.53;67.94
70051;SHT30;57391;51.306;22.680;2023-04-03T08:10:52;2.57;67.40
70051;SHT30;57391;51.306;22.680;2023-04-03T08:13:21;2.61;67.61
70051;SHT30;57391;51.306;22.680;2023-04-03T08:15:48;2.65;67.65
70051;SHT30;57391;51.306;22.680;2023-04-03T08:18:17;2.65;66.71
70051;SHT30;57391;51.306;22.680;2023-04-03T08:20:47;2.65;66.62
70051;SHT30;57391;51.306;22.680;2023-04-03T08:23:15;2.65;66.75
70051;SHT30;57391;51.306;22.680;2023-04-03T08:25:43;2.66;65.91
70051;SHT30;57391;51.306;22.680;2023-04-03T08:28:11;2.65;65.91
70051;SHT30;57391;51.306;22.680;2023-04-03T08:30:39;2.66;66.18
70051;SHT30;57391;51.306;22.680;2023-04-03T08:33:08;2.66;65.65
70051;SHT30;57391;51.306;22.680;2023-04-03T08:35:40;2.65;65.96
70051;SHT30;57391;51.306;22.680;2023-04-03T08:38:09;2.69;65.80
70051;SHT30;57391;51.306;22.680;2023-04-03T08:40:36;2.71;65.53
70051;SHT30;57391;51.306;22.680;2023-04-03T08:45:55;2.76;65.68
70051;SHT30;57391;51.306;22.680;2023-04-03T08:48:27;2.79;65.45
70051;SHT30;57391;51.306;22.680;2023-04-03T08:51:14;2.85;65.50
70051;SHT30;57391;51.306;22.680;2023-04-03T08:53:59;2.87;64.13
70051;SHT30;57391;51.306;22.680;2023-04-03T08:56:31;2.86;63.36
70051;SHT30;57391;51.306;22.680;2023-04-03T08:59:04;2.89;63.71
70051;SHT30;57391;51.306;22.680;2023-04-03T09:01:40;2.92;63.69
70051;SHT30;57391;51.306;22.680;2023-04-03T09:04:13;2.94;62.43
70051;SHT30;57391;51.306;22.680;2023-04-03T09:06:43;2.93;62.10
70051;SHT30;57391;51.306;22.680;2023-04-03T09:09:32;2.97;62.66
70051;SHT30;57391;51.306;22.680;2023-04-03T09:12:26;3.01;61.63
70051;SHT30;57391;51.306;22.680;2023-04-03T09:20:48;3.00;60.02
70051;SHT30;57391;51.306;22.680;2023-04-03T09:26:04;3.02;60.01
70051;SHT30;57391;51.306;22.680;2023-04-03T09:28:40;3.03;60.19
70051;SHT30;57391;51.306;22.680;2023-04-03T09:31:14;3.07;60.45
70051;SHT30;57391;51.306;22.680;2023-04-03T09:33:50;3.11;60.01
70051;SHT30;57391;51.306;22.680;2023-04-03T09:39:46;3.22;59.37
70051;SHT30;57391;51.306;22.680;2023-04-03T09:44:55;3.31;59.32
70051;SHT30;57391;51.306;22.680;2023-04-03T09:47:30;3.36;59.31
70051;SHT30;57391;51.306;22.680;2023-04-03T09:52:41;3.49;59.55
70051;SHT30;57391;51.306;22.680;2023-04-03T09:55:20;3.57;59.52
70051;SHT30;57391;51.306;22.680;2023-04-03T09:57:57;3.64;59.02
70051;SHT30;57391;51.306;22.680;2023-04-03T10:00:37;3.71;57.70
70051;SHT30;57391;51.306;22.680;2023-04-03T10:03:22;3.74;57.69
70051;SHT30;57391;51.306;22.680;2023-04-03T10:05:56;3.77;57.66
70051;SHT30;57391;51.306;22.680;2023-04-03T10:08:26;3.80;57.77
70051;SHT30;57391;51.306;22.680;2023-04-03T10:11:10;3.86;57.64
70051;SHT30;57391;51.306;22.680;2023-04-03T10:13:52;3.91;57.45
70051;SHT30;57391;51.306;22.680;2023-04-03T10:19:30;4.02;56.46
70051;SHT30;57391;51.306;22.680;2023-04-03T10:25:04;4.11;56.04
70051;SHT30;57391;51.306;22.680;2023-04-03T10:27:55;4.15;56.79
70051;SHT30;57391;51.306;22.680;2023-04-03T10:39:18;4.34;55.68
70051;SHT30;57391;51.306;22.680;2023-04-03T10:58:41;5.21;54.57
70051;SHT30;57391;51.306;22.680;2023-04-03T11:01:24;5.24;53.62
70051;SHT30;57391;51.306;22.680;2023-04-03T11:04:00;5.24;53.20
70051;SHT30;57391;51.306;22.680;2023-04-03T11:06:34;5.25;53.53
70051;SHT30;57391;51.306;22.680;2023-04-03T11:09:26;5.29;52.92
70051;SHT30;57391;51.306;22.680;2023-04-03T11:12:17;5.28;53.11
70051;SHT30;57391;51.306;22.680;2023-04-03T11:14:50;5.25;53.13
70051;SHT30;57391;51.306;22.680;2023-04-03T11:17:31;5.20;52.48
70051;SHT30;57391;51.306;22.680;2023-04-03T11:20:19;5.12;53.73
70051;SHT30;57391;51.306;22.680;2023-04-03T11:25:33;4.99;54.28
70051;SHT30;57391;51.306;22.680;2023-04-03T11:28:04;4.95;55.09
70051;SHT30;57391;51.306;22.680;2023-04-03T11:30:45;4.88;54.90
70051;SHT30;57391;51.306;22.680;2023-04-03T11:33:49;4.84;54.49
70051;SHT30;57391;51.306;22.680;2023-04-03T11:36:42;4.79;54.87
70051;SHT30;57391;51.306;22.680;2023-04-03T11:41:52;4.74;54.96
70051;SHT30;57391;51.306;22.680;2023-04-03T11:44:30;4.76;54.84
70051;SHT30;57391;51.306;22.680;2023-04-03T11:47:05;4.78;54.08
70051;SHT30;57391;51.306;22.680;2023-04-03T11:58:34;4.89;54.34
70051;SHT30;57391;51.306;22.680;2023-04-03T12:01:06;4.94;52.40
70051;SHT30;57391;51.306;22.680;2023-04-03T12:16:23;5.29;52.33
70051;SHT30;57391;51.306;22.680;2023-04-03T12:19:13;5.33;51.55
70051;SHT30;57391;51.306;22.680;2023-04-03T12:24:30;5.38;52.63
70051;SHT30;57391;51.306;22.680;2023-04-03T12:29:51;5.37;52.03
70051;SHT30;57391;51.306;22.680;2023-04-03T12:47:08;5.46;52.30
70051;SHT30;57391;51.306;22.680;2023-04-03T12:49:55;5.49;52.51
70051;SHT30;57391;51.306;22.680;2023-04-03T12:52:41;5.51;51.45
70051;SHT30;57391;51.306;22.680;2023-04-03T12:55:16;5.54;51.62
70051;SHT30;57391;51.306;22.680;2023-04-03T12:57:46;5.58;50.62
70051;SHT30;57391;51.306;22.680;2023-04-03T13:03:01;5.67;50.52
70051;SHT30;57391;51.306;22.680;2023-04-03T13:05:31;5.73;49.89
70051;SHT30;57391;51.306;22.680;2023-04-03T13:08:04;5.73;49.87
70051;SHT30;57391;51.306;22.680;2023-04-03T13:10:58;5.76;50.45
70051;SHT30;57391;51.306;22.680;2023-04-03T13:13:34;5.77;48.79
70051;SHT30;57391;51.306;22.680;2023-04-03T13:16:07;5.79;49.43
70051;SHT30;57391;51.306;22.680;2023-04-03T13:18:38;5.82;50.98
70051;SHT30;57391;51.306;22.680;2023-04-03T13:21:07;5.90;51.91
70051;SHT30;57391;51.306;22.680;2023-04-03T13:23:45;5.93;51.54
70051;SHT30;57391;51.306;22.680;2023-04-03T13:26:17;5.94;51.25
70051;SHT30;57391;51.306;22.680;2023-04-03T13:28:47;5.96;49.84
70051;SHT30;57391;51.306;22.680;2023-04-03T13:31:18;5.95;50.45
70051;SHT30;57391;51.306;22.680;2023-04-03T13:36:29;5.83;50.41
70051;SHT30;57391;51.306;22.680;2023-04-03T13:41:40;5.77;50.25
70051;SHT30;57391;51.306;22.680;2023-04-03T13:46:50;5.69;49.16
70051;SHT30;57391;51.306;22.680;2023-04-03T13:55:17;5.64;50.79
70051;SHT30;57391;51.306;22.680;2023-04-03T13:57:55;5.67;51.00
70051;SHT30;57391;51.306;22.680;2023-04-03T14:00:47;5.65;49.72
70051;SHT30;57391;51.306;22.680;2023-04-03T14:03:30;5.56;49.56
70051;SHT30;57391;51.306;22.680;2023-04-03T14:06:08;5.51;49.86
70051;SHT30;57391;51.306;22.680;2023-04-03T14:08:42;5.51;50.53
70051;SHT30;57391;51.306;22.680;2023-04-03T14:11:20;5.48;49.60
70051;SHT30;57391;51.306;22.680;2023-04-03T14:13:55;5.45;49.22
70051;SHT30;57391;51.306;22.680;2023-04-03T14:16:41;5.42;49.56
70051;SHT30;57391;51.306;22.680;2023-04-03T14:19:17;5.43;49.51
70051;SHT30;57391;51.306;22.680;2023-04-03T14:21:50;5.41;48.55
70051;SHT30;57391;51.306;22.680;2023-04-03T14:24:20;5.39;48.53
70051;SHT30;57391;51.306;22.680;2023-04-03T14:26:48;5.36;47.99
70051;SHT30;57391;51.306;22.680;2023-04-03T14:29:18;5.35;48.48
70051;SHT30;57391;51.306;22.680;2023-04-03T14:31:48;5.35;48.58
70051;SHT30;57391;51.306;22.680;2023-04-03T14:34:16;5.32;48.63
70051;SHT30;57391;51.306;22.680;2023-04-03T14:36:44;5.30;48.59
70051;SHT30;57391;51.306;22.680;2023-04-03T14:39:18;5.28;48.43
70051;SHT30;57391;51.306;22.680;2023-04-03T14:41:46;5.29;49.05
70051;SHT30;57391;51.306;22.680;2023-04-03T14:44:13;5.31;48.95
70051;SHT30;57391;51.306;22.680;2023-04-03T14:46:42;5.30;48.71
70051;SHT30;57391;51.306;22.680;2023-04-03T14:49:18;5.32;48.95
70051;SHT30;57391;51.306;22.680;2023-04-03T14:51:53;5.31;48.60
70051;SHT30;57391;51.306;22.680;2023-04-03T14:54:21;5.30;48.37
70051;SHT30;57391;51.306;22.680;2023-04-03T14:56:54;5.30;48.98
70051;SHT30;57391;51.306;22.680;2023-04-03T14:59:24;5.28;49.04
70051;SHT30;57391;51.306;22.680;2023-04-03T15:01:58;5.28;49.21
70051;SHT30;57391;51.306;22.680;2023-04-03T15:04:26;5.28;48.89
70051;SHT30;57391;51.306;22.680;2023-04-03T15:07:07;5.27;48.11
70051;SHT30;57391;51.306;22.680;2023-04-03T15:09:35;5.24;48.57
70051;SHT30;57391;51.306;22.680;2023-04-03T15:12:08;5.25;49.73
70051;SHT30;57391;51.306;22.680;2023-04-03T15:14:39;5.27;49.12
70051;SHT30;57391;51.306;22.680;2023-04-03T15:17:19;5.27;48.72
70051;SHT30;57391;51.306;22.680;2023-04-03T15:19:50;5.23;48.13
70051;SHT30;57391;51.306;22.680;2023-04-03T15:22:18;5.22;48.65
70051;SHT30;57391;51.306;22.680;2023-04-03T15:24:46;5.20;48.65
70051;SHT30;57391;51.306;22.680;2023-04-03T15:27:14;5.20;48.47
70051;SHT30;57391;51.306;22.680;2023-04-03T15:29:42;5.21;48.51
70051;SHT30;57391;51.306;22.680;2023-04-03T15:32:11;5.21;48.24
70051;SHT30;57391;51.306;22.680;2023-04-03T15:34:40;5.20;48.70
70051;SHT30;57391;51.306;22.680;2023-04-03T15:37:07;5.18;47.98
70051;SHT30;57391;51.306;22.680;2023-04-03T15:39:34;5.18;48.70
70051;SHT30;57391;51.306;22.680;2023-04-03T15:42:05;5.18;49.01
70051;SHT30;57391;51.306;22.680;2023-04-03T15:44:33;5.21;49.28
70051;SHT30;57391;51.306;22.680;2023-04-03T15:47:04;5.19;48.78
70051;SHT30;57391;51.306;22.680;2023-04-03T15:49:34;5.19;48.65
70051;SHT30;57391;51.306;22.680;2023-04-03T15:52:05;5.18;48.61
70051;SHT30;57391;51.306;22.680;2023-04-03T15:54:39;5.16;48.31
70051;SHT30;57391;51.306;22.680;2023-04-03T15:57:06;5.14;48.55
70051;SHT30;57391;51.306;22.680;2023-04-03T15:59:34;5.14;49.33
70051;SHT30;57391;51.306;22.680;2023-04-03T16:02:01;5.11;49.36
70051;SHT30;57391;51.306;22.680;2023-04-03T16:04:34;5.10;48.81
70051;SHT30;57391;51.306;22.680;2023-04-03T16:07:03;5.08;49.10
70051;SHT30;57391;51.306;22.680;2023-04-03T16:09:33;5.05;49.31
70051;SHT30;57391;51.306;22.680;2023-04-03T16:12:03;5.03;49.18
70051;SHT30;57391;51.306;22.680;2023-04-03T16:14:30;5.00;48.96
70051;SHT30;57391;51.306;22.680;2023-04-03T16:16:58;4.97;49.49
70051;SHT30;57391;51.306;22.680;2023-04-03T16:19:26;4.94;49.33
70051;SHT30;57391;51.306;22.680;2023-04-03T16:21:53;4.90;48.95
70051;SHT30;57391;51.306;22.680;2023-04-03T16:24:22;4.89;49.08
70051;SHT30;57391;51.306;22.680;2023-04-03T16:26:49;4.89;49.38
70051;SHT30;57391;51.306;22.680;2023-04-03T16:29:16;4.87;49.43
70051;SHT30;57391;51.306;22.680;2023-04-03T16:31:44;4.85;49.64
70051;SHT30;57391;51.306;22.680;2023-04-03T16:34:12;4.84;49.84
70051;SHT30;57391;51.306;22.680;2023-04-03T16:36:40;4.82;50.10
70051;SHT30;57391;51.306;22.680;2023-04-03T16:39:07;4.77;50.02
70051;SHT30;57391;51.306;22.680;2023-04-03T16:41:36;4.75;49.93
70051;SHT30;57391;51.306;22.680;2023-04-03T16:44:04;4.72;49.75
70051;SHT30;57391;51.306;22.680;2023-04-03T16:46:34;4.68;49.87
70051;SHT30;57391;51.306;22.680;2023-04-03T16:49:03;4.66;49.97
70051;SHT30;57391;51.306;22.680;2023-04-03T16:51:44;4.64;50.68
70051;SHT30;57391;51.306;22.680;2023-04-03T16:54:47;4.62;50.81
70051;SHT30;57391;51.306;22.680;2023-04-03T16:57:14;4.61;51.04
70051;SHT30;57391;51.306;22.680;2023-04-03T16:59:44;4.59;50.83
70051;SHT30;57391;51.306;22.680;2023-04-03T17:02:11;4.57;51.53
70051;SHT30;57391;51.306;22.680;2023-04-03T17:04:38;4.58;51.76
70051;SHT30;57391;51.306;22.680;2023-04-03T17:07:06;4.57;51.11
70051;SHT30;57391;51.306;22.680;2023-04-03T17:09:34;4.57;51.26
70051;SHT30;57391;51.306;22.680;2023-04-03T17:12:01;4.56;51.23
70051;SHT30;57391;51.306;22.680;2023-04-03T17:14:29;4.56;51.36
70051;SHT30;57391;51.306;22.680;2023-04-03T17:16:57;4.55;51.63
70051;SHT30;57391;51.306;22.680;2023-04-03T17:19:25;4.53;51.33
70051;SHT30;57391;51.306;22.680;2023-04-03T17:21:53;4.51;51.53
70051;SHT30;57391;51.306;22.680;2023-04-03T17:24:22;4.52;51.54
70051;SHT30;57391;51.306;22.680;2023-04-03T17:26:50;4.50;51.26
70051;SHT30;57391;51.306;22.680;2023-04-03T17:29:18;4.50;51.09
70051;SHT30;57391;51.306;22.680;2023-04-03T17:31:46;4.49;51.39
70051;SHT30;57391;51.306;22.680;2023-04-03T17:34:14;4.49;51.61
70051;SHT30;57391;51.306;22.680;2023-04-03T17:36:41;4.50;51.74
70051;SHT30;57391;51.306;22.680;2023-04-03T17:39:10;4.50;51.48
70051;SHT30;57391;51.306;22.680;2023-04-03T17:41:38;4.49;51.61
70051;SHT30;57391;51.306;22.680;2023-04-03T17:44:06;4.46;51.99
70051;SHT30;57391;51.306;22.680;2023-04-03T17:46:33;4.45;51.79
70051;SHT30;57391;51.306;22.680;2023-04-03T17:49:01;4.44;52.04
70051;SHT30;57391;51.306;22.680;2023-04-03T17:51:30;4.44;51.87
70051;SHT30;57391;51.306;22.680;2023-04-03T17:54:00;4.43;52.09